createdAt,value
2022-08-31T00:00:51.531Z,3.83
2022-08-31T00:03:39.351Z,3.75
2022-08-31T00:06:06.682Z,4.05
2022-08-31T00:08:34.147Z,3.75
2022-08-31T00:11:01.371Z,3.85
2022-08-31T00:13:28.640Z,4.13
2022-08-31T00:15:56.800Z,3.97
2022-08-31T00:18:23.516Z,5.18
2022-08-31T00:20:50.498Z,3.83
2022-08-31T00:23:18.040Z,3.90
2022-08-31T00:25:47.484Z,4.10
2022-08-31T00:28:15.405Z,3.60
2022-08-31T00:30:42.697Z,4.20
2022-08-31T00:33:11.505Z,4.03
2022-08-31T00:35:41.527Z,4.07
2022-08-31T00:38:09.933Z,4.28
2022-08-31T00:40:38.146Z,4.30
2022-08-31T00:43:12.917Z,4.15
2022-08-31T00:45:39.620Z,4.07
2022-08-31T00:48:06.311Z,4.05
2022-08-31T00:50:33.403Z,4.40
2022-08-31T00:53:01.899Z,4.53
2022-08-31T00:55:36.779Z,4.57
2022-08-31T00:58:08.919Z,4.30
2022-08-31T01:00:36.146Z,4.40
2022-08-31T01:03:05.225Z,4.00
2022-08-31T01:05:32.613Z,3.90
2022-08-31T01:08:00.913Z,4.38
2022-08-31T01:10:33.173Z,4.83
2022-08-31T01:13:00.566Z,4.25
2022-08-31T01:15:30.551Z,4.50
2022-08-31T01:18:02.990Z,4.18
2022-08-31T01:20:36.971Z,4.37
2022-08-31T01:23:14.098Z,4.05
2022-08-31T01:25:44.332Z,4.07
2022-08-31T01:28:11.762Z,4.20
2022-08-31T01:30:39.460Z,4.32
2022-08-31T01:33:06.373Z,4.10
2022-08-31T01:35:33.783Z,4.10
2022-08-31T01:38:01.321Z,4.18
2022-08-31T01:40:38.166Z,4.10
2022-08-31T01:43:04.920Z,4.47
2022-08-31T01:45:31.607Z,4.50
2022-08-31T01:47:59.878Z,4.90
2022-08-31T01:50:27.067Z,4.17
2022-08-31T01:52:53.698Z,4.30
2022-08-31T01:55:20.359Z,4.30
2022-08-31T01:57:47.026Z,4.18
2022-08-31T02:00:14.021Z,4.50
2022-08-31T02:02:42.096Z,4.30
2022-08-31T02:05:10.374Z,3.97
2022-08-31T02:07:37.050Z,4.20
2022-08-31T02:10:05.039Z,4.22
2022-08-31T02:12:31.693Z,4.17
2022-08-31T02:14:58.541Z,4.27
2022-08-31T02:17:25.471Z,4.50
2022-08-31T02:19:52.200Z,4.47
2022-08-31T02:22:18.871Z,3.92
2022-08-31T02:24:45.564Z,4.18
2022-08-31T02:27:12.298Z,4.35
2022-08-31T02:29:39.086Z,4.27
2022-08-31T02:32:06.073Z,4.55
2022-08-31T02:34:32.844Z,4.60
2022-08-31T02:36:59.536Z,4.47
2022-08-31T02:39:26.305Z,4.27
2022-08-31T02:41:53.185Z,3.78
2022-08-31T02:44:19.945Z,4.73
2022-08-31T02:46:46.687Z,4.30
2022-08-31T02:49:13.630Z,4.28
2022-08-31T02:51:42.042Z,4.85
2022-08-31T02:54:09.060Z,4.80
2022-08-31T02:56:35.737Z,4.77
2022-08-31T02:59:02.478Z,4.87
2022-08-31T03:01:29.346Z,4.93
2022-08-31T03:03:56.358Z,4.23
2022-08-31T03:06:23.962Z,4.50
2022-08-31T03:08:50.814Z,4.37
2022-08-31T03:11:18.338Z,4.90
2022-08-31T03:13:45.126Z,4.60
2022-08-31T03:16:14.611Z,4.57
2022-08-31T03:18:42.068Z,4.63
2022-08-31T03:21:08.776Z,4.27
2022-08-31T03:23:36.572Z,4.67
2022-08-31T03:26:05.595Z,4.97
2022-08-31T03:28:33.863Z,4.60
2022-08-31T03:31:00.596Z,5.10
2022-08-31T03:33:27.243Z,5.07
2022-08-31T03:35:54.996Z,4.97
2022-08-31T03:38:21.586Z,4.60
2022-08-31T03:40:48.494Z,5.23
2022-08-31T03:43:15.331Z,5.40
2022-08-31T03:45:43.003Z,5.00
2022-08-31T03:48:12.761Z,4.93
2022-08-31T03:50:41.351Z,5.70
2022-08-31T03:53:09.402Z,5.07
2022-08-31T03:55:39.421Z,4.70
2022-08-31T03:58:07.867Z,4.57
2022-08-31T04:00:35.418Z,4.60
2022-08-31T04:03:02.438Z,4.90
2022-08-31T04:05:32.081Z,4.77
2022-08-31T04:07:59.127Z,4.53
2022-08-31T04:10:26.076Z,4.73
2022-08-31T04:12:52.900Z,4.47
2022-08-31T04:15:19.871Z,4.40
2022-08-31T04:17:47.237Z,4.33
2022-08-31T04:20:14.722Z,4.57
2022-08-31T04:22:43.769Z,4.03
2022-08-31T04:25:10.591Z,4.23
2022-08-31T04:27:40.570Z,4.40
2022-08-31T04:30:09.087Z,3.97
2022-08-31T04:32:35.943Z,4.13
2022-08-31T04:35:03.561Z,4.43
2022-08-31T04:37:30.771Z,4.50
2022-08-31T04:39:59.331Z,3.60
2022-08-31T04:42:30.166Z,3.80
2022-08-31T04:44:56.884Z,4.17
2022-08-31T04:47:23.520Z,4.22
2022-08-31T04:49:50.145Z,4.30
2022-08-31T04:52:17.045Z,4.50
2022-08-31T04:54:43.707Z,4.40
2022-08-31T04:57:10.662Z,4.60
2022-08-31T04:59:37.264Z,4.50
2022-08-31T05:02:04.076Z,4.47
2022-08-31T05:04:31.775Z,4.30
2022-08-31T05:06:58.880Z,4.00
2022-08-31T05:09:25.803Z,4.20
2022-08-31T05:11:54.398Z,4.33
2022-08-31T05:14:22.242Z,4.83
2022-08-31T05:16:49.292Z,4.57
2022-08-31T05:19:16.170Z,4.80
2022-08-31T05:21:43.629Z,4.87
2022-08-31T05:24:20.174Z,4.30
2022-08-31T05:26:49.403Z,4.40
2022-08-31T05:29:21.741Z,4.67
2022-08-31T05:31:52.294Z,4.43
2022-08-31T05:34:21.188Z,4.67
2022-08-31T05:36:52.298Z,4.47
2022-08-31T05:39:19.595Z,4.83
2022-08-31T05:41:47.508Z,4.40
2022-08-31T05:44:14.974Z,4.27
2022-08-31T05:46:42.095Z,4.50
2022-08-31T05:49:09.546Z,3.90
2022-08-31T05:51:38.640Z,4.47
2022-08-31T05:54:05.978Z,4.10
2022-08-31T05:56:32.842Z,4.27
2022-08-31T05:58:59.532Z,4.50
2022-08-31T06:01:30.518Z,4.60
2022-08-31T06:03:58.317Z,4.30
2022-08-31T06:06:25.825Z,4.13
2022-08-31T06:08:53.007Z,4.27
2022-08-31T06:11:22.534Z,4.50
2022-08-31T06:13:52.247Z,4.40
2022-08-31T06:16:20.036Z,4.63
2022-08-31T06:18:51.064Z,4.10
2022-08-31T06:21:23.953Z,4.43
2022-08-31T06:23:52.621Z,4.80
2022-08-31T06:26:21.551Z,4.57
2022-08-31T06:28:51.732Z,4.50
2022-08-31T06:31:27.992Z,4.30
2022-08-31T06:33:58.572Z,4.43
2022-08-31T06:36:27.108Z,4.43
2022-08-31T06:38:56.794Z,4.80
2022-08-31T06:41:27.028Z,4.53
2022-08-31T06:43:55.453Z,5.07
2022-08-31T06:46:23.593Z,4.97
2022-08-31T06:48:53.356Z,4.63
2022-08-31T06:51:20.338Z,4.70
2022-08-31T06:53:46.977Z,4.43
2022-08-31T06:56:20.908Z,4.10
2022-08-31T06:58:53.835Z,3.87
2022-08-31T07:01:34.873Z,3.90
2022-08-31T07:04:06.448Z,4.07
2022-08-31T07:06:37.898Z,3.80
2022-08-31T07:09:06.888Z,3.97
2022-08-31T07:11:42.151Z,4.00
2022-08-31T07:14:13.052Z,3.80
2022-08-31T07:16:40.436Z,3.53
2022-08-31T07:19:08.252Z,3.80
2022-08-31T07:21:41.235Z,3.87
2022-08-31T07:24:10.094Z,3.90
2022-08-31T07:26:46.392Z,4.00
2022-08-31T07:29:15.954Z,3.97
2022-08-31T07:31:50.320Z,3.63
2022-08-31T07:34:19.831Z,4.50
2022-08-31T07:37:06.469Z,3.90
2022-08-31T07:39:52.471Z,4.20
2022-08-31T07:42:28.570Z,3.83
2022-08-31T07:44:56.718Z,3.90
2022-08-31T07:47:27.078Z,3.63
2022-08-31T07:49:55.560Z,3.60
2022-08-31T07:52:25.703Z,3.30
2022-08-31T07:54:55.600Z,3.70
2022-08-31T07:57:25.905Z,3.47
2022-08-31T08:00:07.850Z,3.80
2022-08-31T08:02:38.999Z,3.37
2022-08-31T08:05:11.495Z,3.47
2022-08-31T08:07:40.361Z,3.33
2022-08-31T08:10:14.692Z,3.53
2022-08-31T08:12:43.959Z,3.30
2022-08-31T08:15:11.008Z,3.00
2022-08-31T08:17:37.982Z,3.07
2022-08-31T08:20:08.451Z,3.23
2022-08-31T08:22:54.007Z,3.53
2022-08-31T08:25:25.727Z,3.00
2022-08-31T08:27:54.327Z,2.93
2022-08-31T08:30:21.800Z,2.80
2022-08-31T08:32:48.744Z,3.00
2022-08-31T08:35:16.440Z,2.83
2022-08-31T08:37:57.766Z,3.10
2022-08-31T08:40:37.128Z,3.00
2022-08-31T08:43:06.065Z,3.17
2022-08-31T08:45:33.980Z,3.20
2022-08-31T08:48:01.769Z,2.70
2022-08-31T08:50:31.057Z,2.90
2022-08-31T08:53:03.447Z,2.80
2022-08-31T08:55:39.146Z,2.87
2022-08-31T08:58:10.467Z,2.73
2022-08-31T09:00:42.308Z,3.10
2022-08-31T09:03:21.582Z,3.07
2022-08-31T09:06:23.490Z,2.67
2022-08-31T09:09:38.292Z,2.57
2022-08-31T09:12:30.737Z,2.67
2022-08-31T09:15:36.199Z,3.20
2022-08-31T09:18:07.434Z,3.00
2022-08-31T09:20:34.159Z,2.80
2022-08-31T09:23:01.134Z,3.00
2022-08-31T09:25:33.028Z,3.07
2022-08-31T09:28:03.721Z,3.10
2022-08-31T09:30:44.617Z,3.00
2022-08-31T09:33:29.820Z,3.20
2022-08-31T09:36:14.644Z,3.23
2022-08-31T09:38:42.075Z,2.90
2022-08-31T09:41:30.856Z,3.20
2022-08-31T09:44:20.420Z,3.10
2022-08-31T09:46:50.684Z,3.40
2022-08-31T09:49:24.889Z,3.17
2022-08-31T09:51:52.183Z,3.00
2022-08-31T09:54:45.914Z,2.80
2022-08-31T09:57:13.867Z,3.50
2022-08-31T09:59:44.025Z,2.80
2022-08-31T10:02:22.596Z,3.30
2022-08-31T10:04:54.433Z,2.80
2022-08-31T10:07:38.452Z,3.27
2022-08-31T10:10:27.946Z,3.40
2022-08-31T10:13:11.323Z,2.83
2022-08-31T10:15:50.796Z,3.23
2022-08-31T10:18:32.337Z,3.13
2022-08-31T10:21:11.387Z,2.93
2022-08-31T10:23:57.392Z,3.10
2022-08-31T10:26:36.737Z,3.30
2022-08-31T10:29:19.148Z,2.97
2022-08-31T10:31:53.831Z,3.30
2022-08-31T10:34:43.431Z,2.93
2022-08-31T10:37:16.947Z,3.40
2022-08-31T10:39:48.583Z,2.90
2022-08-31T10:42:21.676Z,3.17
2022-08-31T10:44:57.217Z,3.17
2022-08-31T10:47:33.083Z,3.50
2022-08-31T10:50:05.229Z,3.00
2022-08-31T10:52:42.950Z,3.37
2022-08-31T10:55:28.874Z,3.17
2022-08-31T10:58:01.387Z,3.20
2022-08-31T11:00:45.819Z,3.20
2022-08-31T11:03:40.225Z,3.10
2022-08-31T11:06:28.087Z,3.07
2022-08-31T11:09:15.020Z,3.10
2022-08-31T11:12:13.552Z,2.97
2022-08-31T11:14:58.517Z,3.40
2022-08-31T11:17:57.437Z,3.45
2022-08-31T11:20:34.364Z,3.30
2022-08-31T11:23:30.104Z,2.87
2022-08-31T11:26:18.472Z,3.00
2022-08-31T11:28:55.675Z,3.23
2022-08-31T11:31:27.362Z,3.03
2022-08-31T11:34:24.578Z,3.23
2022-08-31T11:37:01.084Z,2.87
2022-08-31T11:39:30.977Z,2.80
2022-08-31T11:41:59.181Z,2.90
2022-08-31T11:44:37.140Z,3.30
2022-08-31T11:47:34.552Z,3.00
2022-08-31T11:50:11.504Z,3.30
2022-08-31T11:52:48.077Z,2.80
2022-08-31T11:55:18.370Z,3.03
2022-08-31T11:58:12.608Z,3.50
2022-08-31T12:01:18.930Z,3.20
2022-08-31T12:03:51.319Z,2.97
2022-08-31T12:06:32.219Z,3.40
2022-08-31T12:09:14.766Z,3.10
2022-08-31T12:11:48.289Z,3.00
2022-08-31T12:14:24.127Z,3.17
2022-08-31T12:17:13.633Z,3.10
2022-08-31T12:20:01.980Z,3.10
2022-08-31T12:23:29.841Z,3.17
2022-08-31T12:26:16.691Z,3.17
2022-08-31T12:28:58.334Z,3.57
2022-08-31T12:31:25.278Z,2.93
2022-08-31T12:34:06.257Z,3.00
2022-08-31T12:36:36.073Z,3.20
2022-08-31T12:39:12.025Z,3.13
2022-08-31T12:41:44.199Z,3.07
2022-08-31T12:44:14.016Z,3.20
2022-08-31T12:47:03.344Z,3.20
2022-08-31T12:50:18.107Z,3.17
2022-08-31T12:53:05.627Z,3.33
2022-08-31T12:55:51.613Z,3.13
2022-08-31T12:58:51.017Z,3.35
2022-08-31T13:01:24.271Z,3.07
2022-08-31T13:03:56.282Z,3.53
2022-08-31T13:06:32.658Z,3.50
2022-08-31T13:09:00.869Z,2.85
2022-08-31T13:11:35.167Z,3.70
2022-08-31T13:14:13.728Z,3.60
2022-08-31T13:16:46.477Z,3.30
2022-08-31T13:19:24.026Z,4.40
2022-08-31T13:21:53.723Z,3.67
2022-08-31T13:24:30.810Z,4.03
2022-08-31T13:27:29.079Z,4.03
2022-08-31T13:30:09.864Z,4.40
2022-08-31T13:32:40.799Z,5.00
2022-08-31T13:35:11.041Z,4.50
2022-08-31T13:37:42.982Z,4.53
2022-08-31T13:40:16.599Z,4.70
2022-08-31T13:42:50.013Z,4.90
2022-08-31T13:45:29.032Z,5.30
2022-08-31T13:47:59.512Z,5.20
2022-08-31T13:50:32.787Z,5.53
2022-08-31T13:53:25.955Z,5.50
2022-08-31T13:55:51.271Z,5.60
2022-08-31T13:58:30.279Z,5.53
2022-08-31T14:01:20.251Z,5.37
2022-08-31T14:03:59.501Z,5.53
2022-08-31T14:06:34.759Z,5.00
2022-08-31T14:09:16.441Z,5.67
2022-08-31T14:12:01.221Z,5.00
2022-08-31T14:14:39.774Z,5.03
2022-08-31T14:17:15.344Z,4.90
2022-08-31T14:19:43.798Z,5.70
2022-08-31T14:22:30.398Z,5.80
2022-08-31T14:25:00.636Z,6.40
2022-08-31T14:27:28.121Z,6.50
2022-08-31T14:29:55.073Z,4.60
2022-08-31T14:32:25.036Z,5.20
2022-08-31T14:34:52.797Z,4.40
2022-08-31T14:37:20.270Z,4.40
2022-08-31T14:39:53.812Z,4.17
2022-08-31T14:42:33.403Z,4.20
2022-08-31T14:45:18.475Z,3.60
2022-08-31T14:47:47.835Z,3.53
2022-08-31T14:50:18.181Z,3.67
2022-08-31T14:52:52.869Z,3.40
2022-08-31T14:55:24.526Z,3.60
2022-08-31T14:57:58.648Z,3.20
2022-08-31T15:00:26.328Z,3.40
2022-08-31T15:02:53.703Z,3.20
2022-08-31T15:05:23.282Z,3.50
2022-08-31T15:07:52.955Z,3.40
2022-08-31T15:10:22.867Z,3.10
2022-08-31T15:12:50.355Z,3.23
2022-08-31T15:15:20.611Z,3.30
2022-08-31T15:17:50.459Z,3.00
2022-08-31T15:20:19.566Z,3.43
2022-08-31T15:22:47.799Z,3.20
2022-08-31T15:25:15.161Z,3.27
2022-08-31T15:27:44.029Z,3.00
2022-08-31T15:30:16.117Z,3.63
2022-08-31T15:32:45.052Z,3.30
2022-08-31T15:35:17.966Z,3.37
2022-08-31T15:37:52.882Z,3.20
2022-08-31T15:40:21.629Z,3.30
2022-08-31T15:42:50.190Z,3.20
2022-08-31T15:45:17.253Z,3.40
2022-08-31T15:48:02.328Z,3.17
2022-08-31T15:50:31.628Z,3.10
2022-08-31T15:53:05.156Z,3.20
2022-08-31T15:55:38.816Z,3.00
2022-08-31T15:58:07.693Z,2.63
2022-08-31T16:00:36.248Z,3.33
2022-08-31T16:03:03.645Z,3.03
2022-08-31T16:05:39.137Z,3.20
2022-08-31T16:08:10.211Z,2.70
2022-08-31T16:10:41.349Z,2.97
2022-08-31T16:13:09.520Z,3.33
2022-08-31T16:15:38.143Z,3.43
2022-08-31T16:18:05.958Z,3.27
2022-08-31T16:20:34.352Z,3.40
2022-08-31T16:23:01.213Z,2.90
2022-08-31T16:25:30.413Z,2.67
2022-08-31T16:28:14.671Z,3.43
2022-08-31T16:30:43.718Z,2.90
2022-08-31T16:33:11.454Z,3.23
2022-08-31T16:35:39.422Z,3.47
2022-08-31T16:38:06.998Z,3.37
2022-08-31T16:40:35.298Z,3.30
2022-08-31T16:43:02.260Z,3.20
2022-08-31T16:45:29.161Z,3.00
2022-08-31T16:48:16.061Z,3.00
2022-08-31T16:50:46.983Z,3.20
2022-08-31T16:53:16.490Z,3.10
2022-08-31T16:55:44.286Z,2.97
2022-08-31T16:58:13.731Z,3.33
2022-08-31T17:00:45.314Z,3.10
2022-08-31T17:03:11.984Z,3.20
2022-08-31T17:05:38.629Z,3.23
2022-08-31T17:08:05.371Z,3.80
2022-08-31T17:10:34.370Z,3.30
2022-08-31T17:13:01.053Z,3.27
2022-08-31T17:15:27.781Z,3.33
2022-08-31T17:17:55.115Z,3.23
2022-08-31T17:20:21.910Z,3.30
2022-08-31T17:22:50.103Z,3.30
2022-08-31T17:25:17.690Z,3.20
2022-08-31T17:27:45.549Z,3.20
2022-08-31T17:30:18.179Z,3.27
2022-08-31T17:32:46.134Z,3.00
2022-08-31T17:35:17.985Z,3.03
2022-08-31T17:37:44.885Z,3.00
2022-08-31T17:40:14.114Z,2.90
2022-08-31T17:42:42.040Z,3.40
2022-08-31T17:45:09.693Z,3.10
2022-08-31T17:47:36.425Z,2.90
2022-08-31T17:50:03.957Z,3.30
2022-08-31T17:52:30.807Z,3.00
2022-08-31T17:55:00.707Z,3.00
2022-08-31T17:57:28.024Z,3.43
2022-08-31T17:59:55.200Z,2.80
2022-08-31T18:02:27.909Z,2.80
2022-08-31T18:04:54.714Z,2.83
2022-08-31T18:07:21.822Z,2.90
2022-08-31T18:09:48.707Z,2.70
2022-08-31T18:12:16.899Z,2.73
2022-08-31T18:14:44.188Z,2.90
2022-08-31T18:17:13.814Z,2.87
2022-08-31T18:19:40.538Z,2.33
2022-08-31T18:22:07.484Z,2.80
2022-08-31T18:24:36.892Z,3.10
2022-08-31T18:27:07.269Z,3.00
2022-08-31T18:29:36.474Z,2.73
2022-08-31T18:32:05.094Z,2.80
2022-08-31T18:34:35.334Z,3.20
2022-08-31T18:37:02.379Z,2.90
2022-08-31T18:39:51.867Z,3.13
2022-08-31T18:42:39.339Z,3.13
2022-08-31T18:45:18.633Z,3.30
2022-08-31T18:50:42.367Z,2.93
2022-08-31T18:53:11.034Z,3.07
2022-08-31T18:55:42.414Z,3.07
2022-08-31T18:58:09.193Z,3.40
2022-08-31T19:00:36.047Z,3.33
2022-08-31T19:03:03.027Z,2.97
2022-08-31T19:05:31.445Z,3.20
2022-08-31T19:08:00.165Z,3.23
2022-08-31T19:10:28.084Z,3.23
2022-08-31T19:12:56.152Z,2.90
2022-08-31T19:15:25.625Z,3.20
2022-08-31T19:18:02.353Z,3.03
2022-08-31T19:20:30.380Z,3.00
2022-08-31T19:22:57.245Z,3.30
2022-08-31T19:25:24.504Z,2.80
2022-08-31T19:27:51.974Z,3.07
2022-08-31T19:30:24.487Z,3.30
2022-08-31T19:32:54.207Z,3.70
2022-08-31T19:35:21.301Z,3.37
2022-08-31T19:37:51.739Z,3.57
2022-08-31T19:40:21.032Z,3.90
2022-08-31T19:45:43.784Z,4.00
2022-08-31T19:48:12.915Z,3.70
2022-08-31T19:50:42.261Z,3.40
2022-08-31T19:53:13.461Z,3.43
2022-08-31T19:55:51.416Z,3.97
2022-08-31T19:58:25.483Z,3.90
2022-08-31T20:01:00.590Z,4.03
2022-08-31T20:03:31.335Z,4.00
2022-08-31T20:05:59.421Z,3.80
2022-08-31T20:08:26.232Z,3.60
2022-08-31T20:10:52.895Z,4.03
2022-08-31T20:13:24.636Z,3.93
2022-08-31T20:15:53.017Z,4.30
2022-08-31T20:18:20.840Z,3.87
2022-08-31T20:20:51.948Z,3.55
2022-08-31T20:23:21.190Z,4.07
2022-08-31T20:25:50.077Z,3.27
2022-08-31T20:28:19.113Z,3.50
2022-08-31T20:30:45.821Z,3.20
2022-08-31T20:33:12.621Z,3.30
2022-08-31T20:35:47.638Z,3.40
2022-08-31T20:38:16.153Z,3.30
2022-08-31T20:40:44.662Z,3.40
2022-08-31T20:43:12.589Z,3.50
2022-08-31T20:45:41.268Z,3.43
2022-08-31T20:48:27.477Z,3.33
2022-08-31T20:50:55.883Z,3.50
2022-08-31T20:53:42.152Z,3.30
2022-08-31T20:56:14.748Z,2.90
2022-08-31T20:58:44.499Z,3.07
2022-08-31T21:01:14.202Z,3.33
2022-08-31T21:03:41.420Z,3.50
2022-08-31T21:06:11.370Z,3.30
2022-08-31T21:08:40.939Z,3.30
2022-08-31T21:11:13.536Z,3.13
2022-08-31T21:13:40.337Z,3.30
2022-08-31T21:16:07.351Z,3.30
2022-08-31T21:18:34.904Z,3.37
2022-08-31T21:21:06.587Z,3.20
2022-08-31T21:23:33.810Z,3.30
2022-08-31T21:26:00.710Z,3.40
2022-08-31T21:28:30.709Z,3.40
2022-08-31T21:31:27.624Z,3.37
2022-08-31T21:33:59.119Z,3.40
2022-08-31T21:36:26.866Z,3.40
2022-08-31T21:38:57.609Z,2.80
2022-08-31T21:41:32.453Z,3.40
2022-08-31T21:44:00.782Z,3.00
2022-08-31T21:46:29.568Z,3.37
2022-08-31T21:48:58.879Z,3.53
2022-08-31T21:51:32.171Z,3.17
2022-08-31T21:54:01.839Z,3.43
2022-08-31T21:56:31.508Z,3.47
2022-08-31T21:58:59.485Z,3.23
2022-08-31T22:01:29.496Z,3.30
2022-08-31T22:03:59.082Z,3.50
2022-08-31T22:06:29.045Z,3.50
2022-08-31T22:09:00.829Z,3.47
2022-08-31T22:11:31.182Z,3.50
2022-08-31T22:13:59.340Z,3.60
2022-08-31T22:16:27.649Z,3.40
2022-08-31T22:19:01.844Z,3.60
2022-08-31T22:21:34.096Z,3.57
2022-08-31T22:24:07.400Z,3.43
2022-08-31T22:26:37.881Z,2.90
2022-08-31T22:29:06.591Z,3.37
2022-08-31T22:31:38.619Z,3.80
2022-08-31T22:34:08.016Z,3.53
2022-08-31T22:36:35.163Z,3.93
2022-08-31T22:39:08.334Z,3.83
2022-08-31T22:41:37.288Z,3.60
2022-08-31T22:44:06.352Z,3.87
2022-08-31T22:46:34.682Z,4.10
2022-08-31T22:49:01.862Z,3.63
2022-08-31T22:51:29.257Z,3.33
2022-08-31T22:53:56.097Z,3.67
2022-08-31T22:56:26.620Z,3.17
2022-08-31T22:58:55.141Z,3.57
2022-08-31T23:01:37.761Z,3.70
2022-08-31T23:04:06.643Z,3.47
2022-08-31T23:06:35.376Z,3.33
2022-08-31T23:09:04.442Z,3.50
2022-08-31T23:11:31.114Z,3.23
2022-08-31T23:14:00.302Z,3.30
2022-08-31T23:16:34.617Z,3.30
2022-08-31T23:19:12.169Z,3.40
2022-08-31T23:21:45.460Z,3.90
2022-08-31T23:24:16.608Z,3.30
2022-08-31T23:26:45.148Z,3.50
2022-08-31T23:29:13.247Z,3.70
2022-08-31T23:31:40.388Z,3.43
2022-08-31T23:34:11.483Z,3.57
2022-08-31T23:36:40.630Z,3.30
2022-08-31T23:39:08.585Z,3.40
2022-08-31T23:41:37.773Z,3.10
2022-08-31T23:44:08.571Z,3.20
2022-08-31T23:46:37.553Z,3.17
2022-08-31T23:49:07.150Z,2.90
2022-08-31T23:51:34.449Z,3.30
2022-08-31T23:54:06.317Z,3.30
2022-08-31T23:56:36.065Z,3.70
2022-08-31T23:59:08.936Z,3.90
